Terminal Aerodrome Forecast
Issued by NWS Austin/San Antonio, TX

Home | Current Version | Previous Version | Text Only | Print | Product List | Glossary On
Versions: 1 2 3 4 5 6 7 8 9 10 11 12 13 14 15 16 17 18
000
FTUS44 KEWX 070322 AAA
TAFAUS
TAF AMD
KAUS 070322Z 0703/0806 16010KT P6SM SCT045 SCT250
     FM070600 16011KT P6SM BKN012 OVC030
     FM070800 16010KT 5SM BR BKN007 OVC025
     FM071800 16014KT P6SM VCSH BKN022
     FM072100 16014KT P6SM VCSH BKN035
     FM080300 15008KT P6SM OVC015=

USA.gov is the U.S. government's official web portal to all federal, state and local government web resources and services.